createdAt,value
2023-02-13T00:10:17.708Z,1003.3
2023-02-13T00:29:33.585Z,1003.1
2023-02-13T00:48:52.001Z,1003.1
2023-02-13T01:08:11.393Z,1003
2023-02-13T01:27:30.565Z,1002.9
2023-02-13T01:46:48.835Z,1002.8
2023-02-13T02:06:10.103Z,1002.7
2023-02-13T02:25:28.500Z,1002.7
2023-02-13T02:44:47.771Z,1002.7
2023-02-13T03:04:06.854Z,1002.7
2023-02-13T03:23:24.397Z,1002.8
2023-02-13T03:42:42.580Z,1002.9
2023-02-13T04:02:01.318Z,1002.8
2023-02-13T04:21:20.296Z,1003
2023-02-13T04:40:39.474Z,1002.9
2023-02-13T04:59:57.845Z,1002.8
2023-02-13T05:19:15.785Z,1002.8
2023-02-13T05:38:33.734Z,1002.8
2023-02-13T05:57:52.487Z,1002.8
2023-02-13T06:17:11.373Z,1002.9
2023-02-13T06:36:29.976Z,1002.9
2023-02-13T06:55:44.814Z,1002.8
2023-02-13T07:15:02.329Z,1002.8
2023-02-13T07:34:19.996Z,1002.9
2023-02-13T07:53:38.297Z,1002.9
2023-02-13T08:12:57.059Z,1003
2023-02-13T08:32:20.304Z,1003
2023-02-13T08:51:36.088Z,1003
2023-02-13T09:10:55.745Z,1003.1
2023-02-13T09:30:25.164Z,1003
2023-02-13T09:49:53.233Z,1003
2023-02-13T10:09:07.493Z,1002.9
2023-02-13T10:28:20.248Z,1003
2023-02-13T10:47:40.800Z,1002.9
2023-02-13T11:06:58.762Z,1002.8
2023-02-13T11:26:18.282Z,1002.6
2023-02-13T11:45:37.104Z,1002.4
2023-02-13T12:04:57.748Z,1002.2
2023-02-13T12:24:18.107Z,1002
2023-02-13T12:43:37.210Z,1001.8
2023-02-13T13:02:56.784Z,1001.7
2023-02-13T13:22:15.668Z,1001.5
2023-02-13T13:41:31.988Z,1001.3
2023-02-13T14:00:50.761Z,1001.3
2023-02-13T14:20:09.260Z,1001.1
2023-02-13T14:39:29.677Z,1001.1
2023-02-13T14:58:46.812Z,1001.1
2023-02-13T15:18:02.755Z,1001.1
2023-02-13T15:37:20.792Z,1000.9
2023-02-13T15:56:38.814Z,1000.9
2023-02-13T16:15:56.280Z,1000.8
2023-02-13T16:35:14.188Z,1000.9
2023-02-13T16:54:29.722Z,1000.9
2023-02-13T17:13:46.586Z,1001.1
2023-02-13T17:33:08.138Z,1001.2
2023-02-13T17:52:24.243Z,1001.2
2023-02-13T18:11:37.749Z,1001.3
2023-02-13T18:30:56.183Z,1001.4
2023-02-13T18:50:11.678Z,1001.5
2023-02-13T19:09:30.374Z,1001.5
2023-02-13T19:28:48.226Z,1001.5
2023-02-13T19:48:06.037Z,1001.6
2023-02-13T20:07:22.637Z,1001.6
2023-02-13T20:26:40.245Z,1001.5
2023-02-13T20:45:59.246Z,1001.6
2023-02-13T21:05:15.662Z,1001.6
2023-02-13T21:24:38.198Z,1001.6
2023-02-13T21:43:59.021Z,1001.5
2023-02-13T22:03:09.094Z,1001.4
2023-02-13T22:22:29.735Z,1001.3
2023-02-13T22:41:42.599Z,1001.3
2023-02-13T23:01:02.096Z,1001.4
2023-02-13T23:20:22.335Z,1001.3
2023-02-13T23:39:37.644Z,1001.3
2023-02-13T23:58:54.895Z,1001.2
